Time;durP1;ratioP1;P1;durP2;ratioP2;P2;SDS_P1;SDS_P2;PMS_P1;PMS_P2;Temp;Humidity;BMP_temperature;BMP_pressure;BME280_temperature;BME280_humidity;BME280_pressure;Samples;Min_cycle;Max_cycle;Signal;HPM_P1;HPM_P2
2022/01/28 00:01:19;;;;;;;20.42;13.85;;;;;;;;;;143733;585;47021;-61
2022/01/28 00:03:46;;;;;;;15.82;11.80;;;;;;;;;;143733;676;47012;-61
2022/01/28 00:06:13;;;;;;;16.23;11.40;;;;;;;;;;143733;594;45020;-61
2022/01/28 00:08:40;;;;;;;18.50;13.55;;;;;;;;;;143738;564;46011;-60
2022/01/28 00:11:07;;;;;;;21.20;13.18;;;;;;;;;;143733;607;47020;-60
2022/01/28 00:13:37;;;;;;;17.73;12.18;;;;;;;;;;143733;591;46012;-61
2022/01/28 00:38:07;;;;;;;19.43;12.87;;;;;;;;;;143733;584;46013;-61
2022/01/28 00:40:35;;;;;;;18.52;13.62;;;;;;;;;;143738;597;46012;-62
2022/01/28 00:43:03;;;;;;;17.90;12.75;;;;;;;;;;143734;744;47022;-61
2022/01/28 00:45:30;;;;;;;20.33;13.13;;;;;;;;;;143735;576;46012;-62
2022/01/28 00:47:57;;;;;;;21.02;14.10;;;;;;;;;;143735;603;45030;-60
2022/01/28 00:50:24;;;;;;;17.17;12.10;;;;;;;;;;143738;603;46012;-61
2022/01/28 00:52:52;;;;;;;24.83;15.30;;;;;;;;;;143734;623;47022;-61
2022/01/28 00:55:19;;;;;;;21.15;13.70;;;;;;;;;;143734;627;46012;-62
2022/01/28 00:57:46;;;;;;;16.40;11.68;;;;;;;;;;143734;599;45020;-61
2022/01/28 01:00:14;;;;;;;18.10;11.35;;;;;;;;;;143738;630;46013;-61
2022/01/28 01:02:41;;;;;;;16.45;12.23;;;;;;;;;;143734;588;47023;-61
2022/01/28 01:05:08;;;;;;;21.52;14.70;;;;;;;;;;143734;587;46032;-61
2022/01/28 01:07:35;;;;;;;19.83;12.32;;;;;;;;;;143734;586;45021;-61
2022/01/28 01:10:04;;;;;;;17.52;12.70;;;;;;;;;;143738;569;46021;-61
2022/01/28 01:12:33;;;;;;;17.20;12.70;;;;;;;;;;143734;621;47020;-61
2022/01/28 01:15:01;;;;;;;18.20;12.32;;;;;;;;;;143735;616;46013;-62
2022/01/28 01:17:33;;;;;;;16.98;12.45;;;;;;;;;;143735;576;45021;-61
2022/01/28 01:20:19;;;;;;;21.48;14.43;;;;;;;;;;143738;569;46021;-61
2022/01/28 01:22:53;;;;;;;19.40;14.00;;;;;;;;;;143732;604;47021;-61
2022/01/28 01:25:26;;;;;;;18.00;14.33;;;;;;;;;;143729;567;47012;-61
2022/01/28 01:27:56;;;;;;;24.33;15.25;;;;;;;;;;143736;571;45908;-60
2022/01/28 01:30:26;;;;;;;24.65;15.50;;;;;;;;;;143740;717;46020;-61
2022/01/28 01:32:53;;;;;;;25.88;16.95;;;;;;;;;;143736;577;47020;-61
2022/01/28 01:35:20;;;;;;;26.50;16.75;;;;;;;;;;143733;605;47012;-60
2022/01/28 01:37:47;;;;;;;30.02;18.20;;;;;;;;;;143736;569;45021;-61
2022/01/28 01:40:19;;;;;;;27.05;18.40;;;;;;;;;;143739;566;46012;-61
2022/01/28 01:42:55;;;;;;;37.15;23.85;;;;;;;;;;143735;604;47020;-60
2022/01/28 01:53:49;;;;;;;26.42;18.12;;;;;;;;;;143737;688;46015;-61
2022/01/28 01:56:17;;;;;;;25.60;17.90;;;;;;;;;;143733;654;46012;-61
2022/01/28 01:58:45;;;;;;;23.20;15.57;;;;;;;;;;143734;573;45020;-61
2022/01/28 02:01:12;;;;;;;24.85;17.77;;;;;;;;;;143738;624;46013;-61
2022/01/28 02:03:39;;;;;;;28.35;20.52;;;;;;;;;;143734;633;47022;-61
2022/01/28 02:06:06;;;;;;;25.77;18.48;;;;;;;;;;143735;592;46012;-61
2022/01/28 02:08:34;;;;;;;23.50;17.02;;;;;;;;;;143732;599;46021;-60
2022/01/28 02:11:02;;;;;;;23.60;16.25;;;;;;;;;;143738;692;46020;-61
2022/01/28 02:13:36;;;;;;;23.85;16.95;;;;;;;;;;143735;607;47022;-62
2022/01/28 02:16:03;;;;;;;23.23;15.48;;;;;;;;;;143733;679;47012;-61
2022/01/28 02:18:30;;;;;;;22.75;15.63;;;;;;;;;;143736;676;45020;-61
2022/01/28 02:21:04;;;;;;;22.40;15.18;;;;;;;;;;143739;569;46012;-61
2022/01/28 02:23:32;;;;;;;25.62;15.95;;;;;;;;;;143734;588;47021;-61
2022/01/28 02:26:00;;;;;;;19.98;13.90;;;;;;;;;;143736;579;46012;-61
2022/01/28 02:28:31;;;;;;;25.10;17.70;;;;;;;;;;143732;572;47020;-61
2022/01/28 02:30:58;;;;;;;25.25;16.92;;;;;;;;;;143737;726;46021;-61
2022/01/28 02:33:26;;;;;;;27.50;16.75;;;;;;;;;;143731;577;47020;-61
2022/01/28 02:35:53;;;;;;;25.27;16.48;;;;;;;;;;143736;571;46012;-61
2022/01/28 02:38:22;;;;;;;28.20;19.98;;;;;;;;;;143733;610;46014;-61
2022/01/28 02:40:56;;;;;;;30.05;19.70;;;;;;;;;;143732;569;46018;-62
2022/01/28 02:43:44;;;;;;;28.08;18.83;;;;;;;;;;143733;605;47020;-61
2022/01/28 02:46:16;;;;;;;29.02;20.83;;;;;;;;;;143732;615;47012;-61
2022/01/28 02:49:00;;;;;;;27.23;18.45;;;;;;;;;;143733;608;45910;-60
2022/01/28 02:51:28;;;;;;;32.40;19.33;;;;;;;;;;143738;785;46013;-61
2022/01/28 02:53:58;;;;;;;26.83;20.00;;;;;;;;;;143735;564;47020;-61
2022/01/28 02:56:36;;;;;;;31.87;20.52;;;;;;;;;;143734;580;46012;-61
2022/01/28 02:59:04;;;;;;;28.92;20.42;;;;;;;;;;143737;690;45021;-61
2022/01/28 03:01:31;;;;;;;30.15;21.00;;;;;;;;;;143738;721;46021;-61
2022/01/28 03:04:01;;;;;;;33.25;19.75;;;;;;;;;;143733;569;47027;-61
2022/01/28 03:06:28;;;;;;;29.10;20.70;;;;;;;;;;143733;596;47013;-62
2022/01/28 03:09:01;;;;;;;26.83;16.92;;;;;;;;;;143734;582;46015;-62
2022/01/28 03:17:16;;;;;;;25.42;17.77;;;;;;;;;;143733;572;45917;-62
2022/01/28 03:19:51;;;;;;;29.25;18.58;;;;;;;;;;143734;587;45025;-62
2022/01/28 03:22:18;;;;;;;29.33;19.47;;;;;;;;;;143738;688;46013;-61
2022/01/28 03:24:47;;;;;;;28.85;18.80;;;;;;;;;;143732;606;47020;-61
2022/01/28 03:27:26;;;;;;;25.08;17.45;;;;;;;;;;143734;569;46916;-61
2022/01/28 03:29:53;;;;;;;32.40;17.67;;;;;;;;;;143734;564;46014;-61
2022/01/28 03:32:20;;;;;;;24.80;17.70;;;;;;;;;;143737;569;47012;-60
2022/01/28 03:34:47;;;;;;;26.77;17.73;;;;;;;;;;143734;566;47020;-62
2022/01/28 03:37:15;;;;;;;27.17;17.50;;;;;;;;;;143731;583;47012;-61
2022/01/28 03:39:42;;;;;;;24.15;15.70;;;;;;;;;;143735;565;45910;-62
2022/01/28 03:42:09;;;;;;;23.60;17.02;;;;;;;;;;143739;616;46020;-61
2022/01/28 03:44:37;;;;;;;22.98;15.88;;;;;;;;;;143734;592;47022;-62
2022/01/28 03:47:04;;;;;;;28.77;17.40;;;;;;;;;;143734;583;46012;-61
2022/01/28 03:49:31;;;;;;;24.52;16.27;;;;;;;;;;143733;582;45910;-61
2022/01/28 03:51:59;;;;;;;26.42;16.62;;;;;;;;;;143739;566;46013;-62
2022/01/28 03:54:26;;;;;;;24.48;17.08;;;;;;;;;;143734;608;47020;-61
2022/01/28 03:56:53;;;;;;;28.98;18.30;;;;;;;;;;143732;621;47012;-61
2022/01/28 03:59:20;;;;;;;24.98;17.65;;;;;;;;;;143736;592;45911;-62
2022/01/28 04:01:48;;;;;;;28.00;18.58;;;;;;;;;;143739;583;46012;-61
2022/01/28 04:05:11;;;;;;;32.08;20.15;;;;;;;;;;143736;564;47020;-61
2022/01/28 04:12:40;;;;;;;27.80;19.00;;;;;;;;;;143732;614;46020;-62
2022/01/28 04:18:06;;;;;;;32.45;21.65;;;;;;;;;;143736;585;46012;-62
2022/01/28 04:20:32;;;;;;;33.10;22.15;;;;;;;;;;143734;587;45020;-62
2022/01/28 04:22:59;;;;;;;40.55;27.55;;;;;;;;;;143739;593;46021;-62
2022/01/28 04:25:26;;;;;;;37.00;25.67;;;;;;;;;;143733;585;47022;-61
2022/01/28 04:27:53;;;;;;;45.85;27.60;;;;;;;;;;143737;597;46012;-61
2022/01/28 04:30:20;;;;;;;40.58;26.70;;;;;;;;;;143735;662;45911;-62
2022/01/28 04:32:49;;;;;;;37.55;24.73;;;;;;;;;;143739;582;46012;-62
2022/01/28 04:35:16;;;;;;;38.05;25.33;;;;;;;;;;143734;579;47020;-62
2022/01/28 04:37:56;;;;;;;43.45;23.67;;;;;;;;;;143733;616;47012;-61
2022/01/28 04:40:28;;;;;;;37.08;23.17;;;;;;;;;;143734;591;45910;-61
2022/01/28 04:43:14;;;;;;;29.75;20.27;;;;;;;;;;143739;589;46012;-61
2022/01/28 04:45:52;;;;;;;31.83;21.08;;;;;;;;;;143734;604;47020;-61
2022/01/28 04:48:46;;;;;;;28.58;19.80;;;;;;;;;;143735;619;46012;-62
2022/01/28 04:51:33;;;;;;;29.87;19.40;;;;;;;;;;143737;721;46020;-61
2022/01/28 04:54:15;;;;;;;28.77;19.17;;;;;;;;;;143738;564;47020;-62
2022/01/28 04:57:13;;;;;;;28.73;19.73;;;;;;;;;;143734;591;47020;-61
2022/01/28 05:06:18;;;;;;;36.33;22.15;;;;;;;;;;143738;566;46020;-61
2022/01/28 05:28:43;;;;;;;59.03;31.05;;;;;;;;;;143735;569;47021;-61
2022/01/28 05:31:10;;;;;;;54.47;32.28;;;;;;;;;;143732;598;47020;-62
2022/01/28 05:33:37;;;;;;;49.67;28.20;;;;;;;;;;143733;595;46012;-61
2022/01/28 05:36:04;;;;;;;47.35;27.52;;;;;;;;;;143733;620;45021;-61
2022/01/28 05:38:31;;;;;;;40.50;28.17;;;;;;;;;;143736;579;46021;-61
2022/01/28 05:40:58;;;;;;;40.33;26.08;;;;;;;;;;143732;578;47020;-61
2022/01/28 05:43:25;;;;;;;46.63;26.45;;;;;;;;;;143731;584;47012;-61
2022/01/28 05:45:52;;;;;;;43.10;25.05;;;;;;;;;;143733;569;45911;-62
2022/01/28 05:48:21;;;;;;;39.28;23.17;;;;;;;;;;143735;628;47012;-62
2022/01/28 05:50:49;;;;;;;35.72;22.27;;;;;;;;;;143732;578;47021;-61
2022/01/28 05:53:16;;;;;;;44.65;23.90;;;;;;;;;;143730;576;47012;-61
2022/01/28 05:55:43;;;;;;;35.80;20.67;;;;;;;;;;143734;604;45020;-63
2022/01/28 05:58:10;;;;;;;31.27;20.40;;;;;;;;;;143737;572;46020;-62
2022/01/28 06:00:37;;;;;;;34.55;22.10;;;;;;;;;;143733;601;47023;-62
2022/01/28 06:03:04;;;;;;;32.38;20.12;;;;;;;;;;143733;569;46012;-61
2022/01/28 06:05:31;;;;;;;34.33;20.60;;;;;;;;;;143732;566;46020;-61
2022/01/28 06:07:58;;;;;;;32.72;20.00;;;;;;;;;;143737;686;46021;-61
2022/01/28 06:10:26;;;;;;;30.90;19.27;;;;;;;;;;143732;587;47022;-61
2022/01/28 06:12:54;;;;;;;29.67;18.70;;;;;;;;;;143732;618;47012;-62
2022/01/28 06:15:21;;;;;;;29.42;18.98;;;;;;;;;;143734;589;47021;-61
2022/01/28 06:17:48;;;;;;;26.35;18.10;;;;;;;;;;143735;616;46020;-61
2022/01/28 06:20:19;;;;;;;32.15;20.50;;;;;;;;;;143732;694;47022;-61
2022/01/28 06:22:47;;;;;;;31.85;19.35;;;;;;;;;;143731;577;47012;-61
2022/01/28 06:25:15;;;;;;;28.38;18.83;;;;;;;;;;143730;590;45911;-61
2022/01/28 06:27:42;;;;;;;29.05;19.42;;;;;;;;;;143737;643;46013;-62
2022/01/28 06:30:11;;;;;;;27.95;19.85;;;;;;;;;;143733;569;47023;-62
2022/01/28 06:32:38;;;;;;;33.00;21.48;;;;;;;;;;143733;597;47012;-61
2022/01/28 06:35:09;;;;;;;26.90;18.48;;;;;;;;;;143732;596;45911;-61
2022/01/28 06:37:40;;;;;;;27.42;17.10;;;;;;;;;;143737;605;46012;-61
2022/01/28 06:40:09;;;;;;;29.65;18.10;;;;;;;;;;143731;584;47022;-61
2022/01/28 06:42:36;;;;;;;26.35;17.25;;;;;;;;;;143731;572;47013;-60
2022/01/28 06:45:04;;;;;;;29.25;17.67;;;;;;;;;;143733;565;46014;-60
2022/01/28 06:47:32;;;;;;;26.60;18.67;;;;;;;;;;143736;621;46012;-60
2022/01/28 06:49:59;;;;;;;24.98;17.33;;;;;;;;;;143733;576;47020;-61
2022/01/28 06:52:26;;;;;;;27.45;17.48;;;;;;;;;;143731;597;47012;-61
2022/01/28 06:54:53;;;;;;;29.90;17.80;;;;;;;;;;143734;569;47020;-61
2022/01/28 06:57:20;;;;;;;27.92;18.62;;;;;;;;;;143737;612;46020;-61
2022/01/28 06:59:47;;;;;;;27.92;19.70;;;;;;;;;;143733;594;47021;-61
2022/01/28 07:02:14;;;;;;;34.75;22.42;;;;;;;;;;143730;658;47012;-60
2022/01/28 07:04:41;;;;;;;32.08;20.15;;;;;;;;;;143732;572;45911;-61
2022/01/28 07:07:08;;;;;;;40.80;25.95;;;;;;;;;;143733;649;46021;-61
2022/01/28 07:09:35;;;;;;;49.22;31.02;;;;;;;;;;143732;583;47020;-61
2022/01/28 07:12:04;;;;;;;43.75;29.52;;;;;;;;;;143733;591;46013;-60
2022/01/28 07:14:31;;;;;;;45.00;28.40;;;;;;;;;;143734;682;45021;-60
2022/01/28 07:16:58;;;;;;;41.45;26.87;;;;;;;;;;143736;601;47012;-61
2022/01/28 07:19:25;;;;;;;43.97;26.58;;;;;;;;;;143729;576;47022;-60
2022/01/28 07:21:52;;;;;;;36.97;24.65;;;;;;;;;;143732;630;47012;-60
2022/01/28 07:24:19;;;;;;;46.47;31.70;;;;;;;;;;143729;589;47020;-59
2022/01/28 07:26:46;;;;;;;42.83;29.05;;;;;;;;;;143737;695;46020;-59
2022/01/28 07:29:14;;;;;;;33.97;25.15;;;;;;;;;;143729;569;47023;-58
2022/01/28 07:31:42;;;;;;;37.30;24.75;;;;;;;;;;143731;594;46916;-58
2022/01/28 07:34:09;;;;;;;41.88;27.92;;;;;;;;;;143734;571;47012;-58
2022/01/28 07:36:36;;;;;;;44.38;27.23;;;;;;;;;;143735;571;47033;-59
2022/01/28 07:39:07;;;;;;;38.03;22.15;;;;;;;;;;143732;590;47020;-59
2022/01/28 07:41:34;;;;;;;34.58;22.58;;;;;;;;;;143733;607;46020;-59
2022/01/28 07:44:02;;;;;;;63.63;35.60;;;;;;;;;;143733;577;45021;-58
2022/01/28 07:46:28;;;;;;;60.70;32.90;;;;;;;;;;143736;575;46012;-59
2022/01/28 07:48:56;;;;;;;62.60;36.17;;;;;;;;;;143732;596;47020;-59
2022/01/28 07:51:23;;;;;;;60.58;32.55;;;;;;;;;;143731;608;47013;-58
2022/01/28 07:53:51;;;;;;;51.55;28.15;;;;;;;;;;143732;641;45020;-58
2022/01/28 07:56:18;;;;;;;38.83;24.23;;;;;;;;;;143736;569;46020;-59
2022/01/28 07:58:45;;;;;;;40.50;24.02;;;;;;;;;;143732;637;47021;-59
2022/01/28 08:01:12;;;;;;;38.25;23.67;;;;;;;;;;143733;589;46012;-58
2022/01/28 08:03:39;;;;;;;44.30;25.08;;;;;;;;;;143732;581;45020;-58
2022/01/28 08:06:06;;;;;;;38.05;21.95;;;;;;;;;;143737;607;46012;-58
2022/01/28 08:08:33;;;;;;;34.33;22.27;;;;;;;;;;143732;597;47022;-59
2022/01/28 08:11:00;;;;;;;44.10;24.05;;;;;;;;;;143732;606;46012;-59
2022/01/28 08:13:27;;;;;;;55.00;35.78;;;;;;;;;;143734;627;45021;-59
2022/01/28 08:15:54;;;;;;;50.22;33.47;;;;;;;;;;143736;587;46020;-59
2022/01/28 08:18:21;;;;;;;41.55;26.33;;;;;;;;;;143732;578;47020;-59
2022/01/28 08:20:48;;;;;;;31.62;24.00;;;;;;;;;;143728;564;47027;-59
2022/01/28 08:23:15;;;;;;;38.50;21.80;;;;;;;;;;143734;622;45020;-59
2022/01/28 08:25:42;;;;;;;30.10;20.30;;;;;;;;;;143734;651;47029;-58
2022/01/28 08:28:09;;;;;;;35.60;20.48;;;;;;;;;;143731;683;47021;-57
2022/01/28 08:30:38;;;;;;;32.97;18.00;;;;;;;;;;143730;567;47026;-58
2022/01/28 08:33:06;;;;;;;32.45;20.90;;;;;;;;;;143736;665;45020;-57
2022/01/28 08:35:37;;;;;;;30.37;18.08;;;;;;;;;;143735;598;46020;-58
2022/01/28 08:38:12;;;;;;;31.42;19.23;;;;;;;;;;143731;703;47022;-58
2022/01/28 08:40:40;;;;;;;32.22;19.40;;;;;;;;;;143733;587;46012;-60
2022/01/28 08:43:07;;;;;;;28.35;19.15;;;;;;;;;;143732;573;45021;-60
2022/01/28 08:45:34;;;;;;;26.33;19.70;;;;;;;;;;143724;663;48012;-60
2022/01/28 08:48:01;;;;;;;29.08;19.58;;;;;;;;;;143730;719;47020;-60
2022/01/28 08:50:28;;;;;;;24.20;18.48;;;;;;;;;;143729;592;47012;-60
2022/01/28 08:52:55;;;;;;;24.60;17.12;;;;;;;;;;143734;596;45020;-60
2022/01/28 08:55:23;;;;;;;24.83;17.62;;;;;;;;;;143737;619;46012;-60
2022/01/28 08:57:51;;;;;;;26.98;16.60;;;;;;;;;;143734;578;47021;-60
2022/01/28 09:00:18;;;;;;;25.12;16.85;;;;;;;;;;143731;741;47012;-61
2022/01/28 09:02:45;;;;;;;22.92;16.50;;;;;;;;;;143733;636;45020;-61
2022/01/28 09:05:12;;;;;;;28.77;16.27;;;;;;;;;;143736;604;46021;-61
2022/01/28 09:07:39;;;;;;;23.27;15.73;;;;;;;;;;143733;579;47020;-60
2022/01/28 09:10:18;;;;;;;18.70;14.57;;;;;;;;;;143733;569;47012;-61
2022/01/28 09:15:57;;;;;;;22.90;17.08;;;;;;;;;;143735;570;47012;-61
2022/01/28 09:18:25;;;;;;;27.70;18.52;;;;;;;;;;143733;585;47020;-61
2022/01/28 09:20:53;;;;;;;20.50;15.15;;;;;;;;;;143731;572;47012;-61
2022/01/28 09:23:20;;;;;;;27.83;19.40;;;;;;;;;;143736;585;45020;-61
2022/01/28 09:25:47;;;;;;;24.70;16.67;;;;;;;;;;143735;569;46012;-61
2022/01/28 09:28:14;;;;;;;25.92;17.45;;;;;;;;;;143731;585;47021;-61
2022/01/28 09:30:42;;;;;;;28.95;20.52;;;;;;;;;;143731;567;47012;-61
2022/01/28 09:33:10;;;;;;;25.90;18.80;;;;;;;;;;143732;570;45020;-61
2022/01/28 09:35:37;;;;;;;29.30;19.45;;;;;;;;;;143736;624;46012;-61
2022/01/28 09:38:04;;;;;;;27.87;17.87;;;;;;;;;;143731;615;47022;-61
2022/01/28 09:40:31;;;;;;;35.97;21.40;;;;;;;;;;143732;589;47012;-61
2022/01/28 09:43:00;;;;;;;23.15;16.73;;;;;;;;;;143732;564;46015;-61
2022/01/28 09:45:27;;;;;;;22.20;16.33;;;;;;;;;;143736;641;46020;-62
2022/01/28 09:47:56;;;;;;;27.17;18.27;;;;;;;;;;143733;599;47020;-61
2022/01/28 09:50:29;;;;;;;19.00;16.10;;;;;;;;;;143726;582;47013;-61
2022/01/28 09:52:57;;;;;;;22.95;15.65;;;;;;;;;;143733;600;45020;-61
2022/01/28 09:55:26;;;;;;;20.12;15.48;;;;;;;;;;143736;621;46020;-61
2022/01/28 09:57:59;;;;;;;20.90;14.00;;;;;;;;;;143730;596;47021;-62
2022/01/28 10:00:28;;;;;;;17.00;13.60;;;;;;;;;;143733;601;46012;-61
2022/01/28 10:03:03;;;;;;;25.12;14.60;;;;;;;;;;143733;608;45020;-60
2022/01/28 10:05:41;;;;;;;17.60;13.40;;;;;;;;;;143737;732;46021;-61
2022/01/28 10:08:20;;;;;;;17.90;13.60;;;;;;;;;;143732;584;47020;-60
2022/01/28 10:11:15;;;;;;;17.08;12.95;;;;;;;;;;143731;577;47013;-60
2022/01/28 10:13:47;;;;;;;18.12;12.85;;;;;;;;;;143731;636;46014;-61
2022/01/28 10:16:28;;;;;;;15.77;12.37;;;;;;;;;;143736;585;46012;-61
2022/01/28 10:18:59;;;;;;;18.30;11.93;;;;;;;;;;143730;570;47021;-61
2022/01/28 10:21:43;;;;;;;14.85;11.75;;;;;;;;;;143732;612;46012;-60
2022/01/28 10:24:14;;;;;;;16.85;11.93;;;;;;;;;;143734;815;45020;-60
2022/01/28 10:26:44;;;;;;;14.90;11.20;;;;;;;;;;143737;564;46013;-60
2022/01/28 10:29:20;;;;;;;20.08;11.85;;;;;;;;;;143733;585;47020;-60
2022/01/28 10:31:58;;;;;;;16.95;10.82;;;;;;;;;;143732;578;47012;-61
2022/01/28 10:34:33;;;;;;;15.35;10.90;;;;;;;;;;143733;564;45021;-60
2022/01/28 10:37:32;;;;;;;16.45;11.38;;;;;;;;;;143729;636;47012;-60
2022/01/28 10:40:08;;;;;;;16.98;11.10;;;;;;;;;;143731;597;47024;-61
2022/01/28 10:42:51;;;;;;;13.90;10.15;;;;;;;;;;143733;576;46013;-60
2022/01/28 10:45:20;;;;;;;12.93;9.05;;;;;;;;;;143734;601;45020;-60
2022/01/28 10:47:57;;;;;;;21.92;14.15;;;;;;;;;;143737;608;46020;-61
2022/01/28 10:50:29;;;;;;;34.85;23.83;;;;;;;;;;143732;618;47021;-61
2022/01/28 10:53:06;;;;;;;12.70;9.10;;;;;;;;;;143732;587;47012;-60
2022/01/28 10:55:35;;;;;;;15.40;10.27;;;;;;;;;;143732;698;45020;-59
2022/01/28 10:58:10;;;;;;;20.70;15.45;;;;;;;;;;143737;605;46012;-60
2022/01/28 11:00:44;;;;;;;16.33;10.60;;;;;;;;;;143729;590;47020;-59
2022/01/28 11:03:14;;;;;;;12.95;8.63;;;;;;;;;;143733;626;46012;-59
2022/01/28 11:05:43;;;;;;;16.00;9.60;;;;;;;;;;143734;589;45021;-58
2022/01/28 11:08:12;;;;;;;15.73;8.85;;;;;;;;;;143736;587;46012;-58
2022/01/28 11:10:42;;;;;;;13.80;8.55;;;;;;;;;;143732;621;47022;-59
2022/01/28 11:13:10;;;;;;;12.43;8.85;;;;;;;;;;143732;569;46012;-59
2022/01/28 11:15:37;;;;;;;11.12;8.52;;;;;;;;;;143736;589;45020;-58
2022/01/28 11:18:07;;;;;;;22.10;15.75;;;;;;;;;;143735;637;46020;-58
2022/01/28 11:20:50;;;;;;;24.90;17.35;;;;;;;;;;143731;718;47023;-59
2022/01/28 11:23:54;;;;;;;29.67;21.58;;;;;;;;;;143732;626;47012;-58
2022/01/28 11:26:39;;;;;;;16.90;10.98;;;;;;;;;;143726;601;46020;-58
2022/01/28 11:29:26;;;;;;;22.70;11.52;;;;;;;;;;143737;609;46012;-58
2022/01/28 11:32:08;;;;;;;17.70;12.95;;;;;;;;;;143733;630;47020;-58
2022/01/28 11:34:36;;;;;;;21.58;14.25;;;;;;;;;;143735;583;46013;-58
2022/01/28 11:37:34;;;;;;;15.32;10.77;;;;;;;;;;143736;734;46012;-58
2022/01/28 11:40:12;;;;;;;12.65;9.38;;;;;;;;;;143736;570;47012;-58
2022/01/28 11:42:39;;;;;;;12.95;7.57;;;;;;;;;;143732;617;47023;-58
2022/01/28 11:45:09;;;;;;;11.57;7.78;;;;;;;;;;143732;571;47012;-58
2022/01/28 11:47:40;;;;;;;11.52;7.57;;;;;;;;;;143735;572;45020;-58
2022/01/28 11:50:12;;;;;;;11.02;7.72;;;;;;;;;;143737;583;46032;-58
2022/01/28 11:52:45;;;;;;;9.10;6.97;;;;;;;;;;143732;598;47022;-58
2022/01/28 11:55:31;;;;;;;15.30;7.18;;;;;;;;;;143733;604;47012;-58
2022/01/28 11:58:00;;;;;;;10.02;6.53;;;;;;;;;;143735;603;45021;-58
2022/01/28 12:00:54;;;;;;;10.00;6.70;;;;;;;;;;143738;569;46012;-58
2022/01/28 12:03:24;;;;;;;9.75;7.05;;;;;;;;;;143733;597;47021;-58
2022/01/28 12:05:52;;;;;;;9.85;6.60;;;;;;;;;;143735;622;46012;-57
2022/01/28 12:08:20;;;;;;;9.55;6.15;;;;;;;;;;143733;603;45020;-57
2022/01/28 12:10:49;;;;;;;10.95;6.75;;;;;;;;;;143736;602;46020;-58
2022/01/28 12:13:20;;;;;;;10.35;6.57;;;;;;;;;;143733;566;47031;-58
2022/01/28 12:16:13;;;;;;;10.80;7.07;;;;;;;;;;143733;709;46012;-58
2022/01/28 12:18:54;;;;;;;10.80;7.40;;;;;;;;;;143732;605;45021;-57
2022/01/28 12:21:26;;;;;;;8.52;6.20;;;;;;;;;;143737;673;46020;-57
2022/01/28 12:24:10;;;;;;;10.15;5.93;;;;;;;;;;143732;800;47020;-57
2022/01/28 12:27:05;;;;;;;9.63;7.13;;;;;;;;;;143734;587;46012;-57
2022/01/28 12:29:43;;;;;;;9.80;7.00;;;;;;;;;;143734;660;45020;-57
2022/01/28 12:32:11;;;;;;;13.10;7.78;;;;;;;;;;143736;752;46020;-57
2022/01/28 12:34:47;;;;;;;10.45;7.07;;;;;;;;;;143733;799;47023;-57
2022/01/28 12:37:14;;;;;;;17.98;9.75;;;;;;;;;;143735;564;47012;-57
2022/01/28 12:39:51;;;;;;;10.75;7.97;;;;;;;;;;143735;579;45020;-57
2022/01/28 12:42:23;;;;;;;12.23;7.87;;;;;;;;;;143737;729;46013;-57
2022/01/28 12:44:55;;;;;;;15.60;9.02;;;;;;;;;;143734;573;47020;-57
2022/01/28 12:47:23;;;;;;;12.35;8.32;;;;;;;;;;143734;739;47012;-58
2022/01/28 12:50:02;;;;;;;15.25;8.27;;;;;;;;;;143733;619;45021;-57
2022/01/28 12:52:33;;;;;;;16.00;8.90;;;;;;;;;;143737;649;46020;-57
2022/01/28 12:55:01;;;;;;;15.18;9.13;;;;;;;;;;143734;583;47020;-58
2022/01/28 12:57:28;;;;;;;11.82;8.48;;;;;;;;;;143734;577;46012;-57
2022/01/28 12:59:55;;;;;;;18.87;8.55;;;;;;;;;;143731;625;46020;-59
2022/01/28 13:02:23;;;;;;;12.60;8.73;;;;;;;;;;143735;566;47012;-59
2022/01/28 13:05:10;;;;;;;15.18;8.65;;;;;;;;;;143732;575;47021;-60
2022/01/28 13:10:28;;;;;;;10.88;7.90;;;;;;;;;;143737;601;45021;-59
2022/01/28 13:13:09;;;;;;;12.15;9.07;;;;;;;;;;143737;579;46012;-60
2022/01/28 13:15:38;;;;;;;13.90;8.23;;;;;;;;;;143733;582;47022;-60
2022/01/28 13:18:07;;;;;;;14.38;9.18;;;;;;;;;;143732;565;47013;-59
2022/01/28 13:20:41;;;;;;;14.80;8.20;;;;;;;;;;143736;566;45023;-60
2022/01/28 13:23:10;;;;;;;12.27;8.93;;;;;;;;;;143739;591;46014;-60
2022/01/28 13:25:38;;;;;;;12.18;8.00;;;;;;;;;;143734;564;47022;-60
2022/01/28 13:28:13;;;;;;;12.25;7.82;;;;;;;;;;143734;569;46012;-59
2022/01/28 13:30:41;;;;;;;11.93;8.18;;;;;;;;;;143737;569;45020;-60
2022/01/28 13:33:10;;;;;;;15.10;9.00;;;;;;;;;;143738;592;46013;-61
2022/01/28 13:35:39;;;;;;;11.57;8.30;;;;;;;;;;143734;588;47023;-59
2022/01/28 13:38:16;;;;;;;11.93;8.35;;;;;;;;;;143733;569;47012;-59
2022/01/28 13:40:43;;;;;;;15.88;8.13;;;;;;;;;;143734;595;45909;-60
2022/01/28 13:43:12;;;;;;;10.88;8.23;;;;;;;;;;143738;648;46012;-60
2022/01/28 13:46:05;;;;;;;15.65;9.35;;;;;;;;;;143734;581;47020;-59
2022/01/28 13:48:39;;;;;;;15.35;8.82;;;;;;;;;;143733;595;47013;-60
2022/01/28 13:51:15;;;;;;;11.63;8.23;;;;;;;;;;143735;640;45020;-60
2022/01/28 13:54:15;;;;;;;14.70;9.18;;;;;;;;;;143738;588;46012;-60
2022/01/28 13:56:45;;;;;;;16.77;9.10;;;;;;;;;;143733;588;47025;-60
2022/01/28 13:59:25;;;;;;;15.20;8.55;;;;;;;;;;143735;604;46030;-60
2022/01/28 14:01:54;;;;;;;10.73;7.68;;;;;;;;;;143735;564;45022;-60
2022/01/28 14:04:23;;;;;;;12.15;8.02;;;;;;;;;;143738;607;46021;-60
2022/01/28 14:07:07;;;;;;;21.35;8.40;;;;;;;;;;143735;641;47022;-59
2022/01/28 14:09:43;;;;;;;11.07;8.02;;;;;;;;;;143735;585;46032;-61
2022/01/28 14:12:13;;;;;;;16.65;8.27;;;;;;;;;;143734;585;45021;-61
2022/01/28 14:14:47;;;;;;;13.23;8.75;;;;;;;;;;143739;566;46012;-60
2022/01/28 14:17:14;;;;;;;15.30;7.87;;;;;;;;;;143735;576;47020;-60
2022/01/28 14:19:43;;;;;;;19.77;9.48;;;;;;;;;;143732;579;47012;-60
2022/01/28 14:22:12;;;;;;;15.60;8.27;;;;;;;;;;143734;642;45020;-60
2022/01/28 14:24:41;;;;;;;11.98;8.23;;;;;;;;;;143739;585;46013;-60
2022/01/28 14:27:24;;;;;;;12.13;8.65;;;;;;;;;;143734;652;47020;-60
2022/01/28 14:29:52;;;;;;;15.15;9.00;;;;;;;;;;143735;621;46916;-61
2022/01/28 14:32:24;;;;;;;10.20;7.97;;;;;;;;;;143736;572;45021;-60
2022/01/28 14:34:53;;;;;;;13.50;8.50;;;;;;;;;;143738;614;47012;-60
2022/01/28 14:37:22;;;;;;;13.50;8.73;;;;;;;;;;143736;601;47020;-60
2022/01/28 14:39:49;;;;;;;12.37;7.78;;;;;;;;;;143736;570;46012;-60
2022/01/28 14:42:17;;;;;;;18.58;8.07;;;;;;;;;;143735;589;45021;-60
2022/01/28 14:44:48;;;;;;;13.77;8.15;;;;;;;;;;143739;564;46020;-60
2022/01/28 14:47:16;;;;;;;10.18;7.15;;;;;;;;;;143734;588;47022;-60
2022/01/28 14:49:43;;;;;;;15.02;8.48;;;;;;;;;;143734;686;46012;-60
2022/01/28 14:52:16;;;;;;;15.80;8.40;;;;;;;;;;143735;692;46020;-60
2022/01/28 14:54:43;;;;;;;14.90;8.30;;;;;;;;;;143736;592;46021;-61
2022/01/28 14:57:11;;;;;;;13.85;7.97;;;;;;;;;;143734;566;47023;-60
2022/01/28 14:59:43;;;;;;;10.93;7.43;;;;;;;;;;143736;572;46012;-61
2022/01/28 15:02:15;;;;;;;9.95;7.15;;;;;;;;;;143736;589;45021;-61
2022/01/28 15:04:42;;;;;;;11.30;7.50;;;;;;;;;;143738;565;46012;-61
2022/01/28 15:07:09;;;;;;;10.73;7.87;;;;;;;;;;143731;690;47020;-61
2022/01/28 15:09:40;;;;;;;12.55;8.20;;;;;;;;;;143735;572;46013;-61
2022/01/28 15:12:09;;;;;;;15.82;9.23;;;;;;;;;;143737;589;45021;-61
2022/01/28 15:14:37;;;;;;;13.10;9.23;;;;;;;;;;143738;613;46018;-61
2022/01/28 15:17:04;;;;;;;15.30;8.75;;;;;;;;;;143735;670;47021;-61
2022/01/28 15:19:30;;;;;;;14.65;8.75;;;;;;;;;;143735;589;46010;-61
2022/01/28 15:21:58;;;;;;;16.80;9.02;;;;;;;;;;143737;563;45020;-60
2022/01/28 15:24:26;;;;;;;23.12;10.32;;;;;;;;;;143739;599;46012;-61
2022/01/28 15:26:54;;;;;;;15.02;9.43;;;;;;;;;;143736;582;47020;-61
2022/01/28 15:29:45;;;;;;;17.58;8.75;;;;;;;;;;143733;589;47010;-61
2022/01/28 15:35:35;;;;;;;16.00;9.63;;;;;;;;;;143736;577;46010;-60
2022/01/28 15:37:52;;;;;;;12.37;8.87;;;;;;;;;;143733;580;47011;-61
2022/01/28 15:40:19;;;;;;;20.10;11.02;;;;;;;;;;143734;569;46010;-61
2022/01/28 15:42:46;;;;;;;16.87;9.93;;;;;;;;;;143734;591;45020;-61
2022/01/28 15:45:13;;;;;;;14.25;9.80;;;;;;;;;;143737;571;47020;-61
2022/01/28 15:47:40;;;;;;;17.48;11.45;;;;;;;;;;143736;602;47021;-61
2022/01/28 15:50:08;;;;;;;14.60;9.80;;;;;;;;;;143733;599;47010;-61
2022/01/28 15:52:35;;;;;;;18.60;10.70;;;;;;;;;;143733;672;45908;-61
2022/01/28 15:55:02;;;;;;;17.60;11.25;;;;;;;;;;143738;620;46020;-61
2022/01/28 15:57:29;;;;;;;17.98;10.65;;;;;;;;;;143735;634;46022;-61
2022/01/28 15:59:56;;;;;;;21.00;13.32;;;;;;;;;;143735;601;46010;-61
2022/01/28 16:02:23;;;;;;;19.48;11.35;;;;;;;;;;143735;573;45021;-61